sensor_id;sensor_type;location;lat;lon;timestamp;P1;durP1;ratioP1;P2;durP2;ratioP2
31482;SDS011;18103;52.246;8.052;2023-05-07T00:00:54;16.97;;;11.17;;
31482;SDS011;18103;52.246;8.052;2023-05-07T00:03:20;18.57;;;10.83;;
31482;SDS011;18103;52.246;8.052;2023-05-07T00:05:48;23.00;;;11.60;;
31482;SDS011;18103;52.246;8.052;2023-05-07T00:08:16;18.83;;;11.47;;
31482;SDS011;18103;52.246;8.052;2023-05-07T00:10:44;20.17;;;10.70;;
31482;SDS011;18103;52.246;8.052;2023-05-07T00:13:09;20.30;;;10.90;;
31482;SDS011;18103;52.246;8.052;2023-05-07T00:15:37;17.53;;;10.67;;
31482;SDS011;18103;52.246;8.052;2023-05-07T00:18:05;20.63;;;10.87;;
31482;SDS011;18103;52.246;8.052;2023-05-07T00:20:35;19.93;;;11.07;;
31482;SDS011;18103;52.246;8.052;2023-05-07T00:23:02;21.33;;;11.40;;
31482;SDS011;18103;52.246;8.052;2023-05-07T00:25:30;18.53;;;10.93;;
31482;SDS011;18103;52.246;8.052;2023-05-07T00:27:55;16.90;;;10.73;;
31482;SDS011;18103;52.246;8.052;2023-05-07T00:30:22;20.30;;;11.07;;
31482;SDS011;18103;52.246;8.052;2023-05-07T00:32:47;20.17;;;11.53;;
31482;SDS011;18103;52.246;8.052;2023-05-07T00:35:13;25.73;;;10.33;;
31482;SDS011;18103;52.246;8.052;2023-05-07T00:37:39;20.20;;;11.53;;
31482;SDS011;18103;52.246;8.052;2023-05-07T00:40:04;20.47;;;11.83;;
31482;SDS011;18103;52.246;8.052;2023-05-07T00:42:32;20.53;;;10.20;;
31482;SDS011;18103;52.246;8.052;2023-05-07T00:44:57;20.20;;;11.10;;
31482;SDS011;18103;52.246;8.052;2023-05-07T00:47:23;19.73;;;11.27;;
31482;SDS011;18103;52.246;8.052;2023-05-07T00:49:50;23.67;;;12.07;;
31482;SDS011;18103;52.246;8.052;2023-05-07T00:52:16;22.50;;;11.73;;
31482;SDS011;18103;52.246;8.052;2023-05-07T00:54:47;22.17;;;11.83;;
31482;SDS011;18103;52.246;8.052;2023-05-07T00:57:13;22.60;;;11.10;;
31482;SDS011;18103;52.246;8.052;2023-05-07T00:59:39;20.17;;;11.73;;
31482;SDS011;18103;52.246;8.052;2023-05-07T01:02:06;20.40;;;11.87;;
31482;SDS011;18103;52.246;8.052;2023-05-07T01:04:32;23.47;;;12.40;;
31482;SDS011;18103;52.246;8.052;2023-05-07T01:07:03;26.83;;;13.10;;
31482;SDS011;18103;52.246;8.052;2023-05-07T01:09:29;23.27;;;12.30;;
31482;SDS011;18103;52.246;8.052;2023-05-07T01:11:57;19.33;;;11.70;;
31482;SDS011;18103;52.246;8.052;2023-05-07T01:14:26;20.00;;;12.43;;
31482;SDS011;18103;52.246;8.052;2023-05-07T01:16:52;25.43;;;12.33;;
31482;SDS011;18103;52.246;8.052;2023-05-07T01:19:20;23.97;;;13.00;;
31482;SDS011;18103;52.246;8.052;2023-05-07T01:21:46;26.37;;;13.57;;
31482;SDS011;18103;52.246;8.052;2023-05-07T01:24:13;28.93;;;13.80;;
31482;SDS011;18103;52.246;8.052;2023-05-07T01:26:42;22.83;;;13.03;;
31482;SDS011;18103;52.246;8.052;2023-05-07T01:29:09;25.83;;;14.53;;
31482;SDS011;18103;52.246;8.052;2023-05-07T01:31:35;24.23;;;13.53;;
31482;SDS011;18103;52.246;8.052;2023-05-07T01:34:04;24.30;;;13.87;;
31482;SDS011;18103;52.246;8.052;2023-05-07T01:36:31;27.07;;;13.40;;
31482;SDS011;18103;52.246;8.052;2023-05-07T01:38:58;28.80;;;14.27;;
31482;SDS011;18103;52.246;8.052;2023-05-07T01:41:27;25.67;;;14.77;;
31482;SDS011;18103;52.246;8.052;2023-05-07T01:43:52;29.73;;;14.30;;
31482;SDS011;18103;52.246;8.052;2023-05-07T01:46:22;28.10;;;14.47;;
31482;SDS011;18103;52.246;8.052;2023-05-07T01:48:48;29.47;;;14.07;;
31482;SDS011;18103;52.246;8.052;2023-05-07T01:51:15;27.23;;;14.03;;
31482;SDS011;18103;52.246;8.052;2023-05-07T01:53:40;26.23;;;13.83;;
31482;SDS011;18103;52.246;8.052;2023-05-07T01:56:08;25.97;;;14.50;;
31482;SDS011;18103;52.246;8.052;2023-05-07T01:58:36;22.47;;;13.53;;
31482;SDS011;18103;52.246;8.052;2023-05-07T02:01:04;25.90;;;14.53;;
31482;SDS011;18103;52.246;8.052;2023-05-07T02:03:32;27.77;;;15.90;;
31482;SDS011;18103;52.246;8.052;2023-05-07T02:05:57;28.43;;;15.10;;
31482;SDS011;18103;52.246;8.052;2023-05-07T02:08:25;36.27;;;15.33;;
31482;SDS011;18103;52.246;8.052;2023-05-07T02:10:55;36.73;;;16.30;;
31482;SDS011;18103;52.246;8.052;2023-05-07T02:13:23;29.80;;;14.83;;
31482;SDS011;18103;52.246;8.052;2023-05-07T02:15:50;33.97;;;15.17;;
31482;SDS011;18103;52.246;8.052;2023-05-07T02:18:18;25.43;;;14.23;;
31482;SDS011;18103;52.246;8.052;2023-05-07T02:20:46;31.97;;;15.73;;
31482;SDS011;18103;52.246;8.052;2023-05-07T02:23:11;34.53;;;15.40;;
31482;SDS011;18103;52.246;8.052;2023-05-07T02:25:40;25.43;;;15.00;;
31482;SDS011;18103;52.246;8.052;2023-05-07T02:28:05;32.53;;;15.93;;
31482;SDS011;18103;52.246;8.052;2023-05-07T02:30:33;29.67;;;15.17;;
31482;SDS011;18103;52.246;8.052;2023-05-07T02:32:58;29.70;;;15.17;;
31482;SDS011;18103;52.246;8.052;2023-05-07T02:35:24;24.47;;;14.73;;
31482;SDS011;18103;52.246;8.052;2023-05-07T02:37:50;29.90;;;16.13;;
31482;SDS011;18103;52.246;8.052;2023-05-07T02:40:17;26.57;;;14.63;;
31482;SDS011;18103;52.246;8.052;2023-05-07T02:42:43;30.67;;;16.03;;
31482;SDS011;18103;52.246;8.052;2023-05-07T02:45:11;32.53;;;16.20;;
31482;SDS011;18103;52.246;8.052;2023-05-07T02:47:39;31.53;;;17.87;;
31482;SDS011;18103;52.246;8.052;2023-05-07T02:50:05;29.23;;;17.20;;
31482;SDS011;18103;52.246;8.052;2023-05-07T02:52:31;34.73;;;17.27;;
31482;SDS011;18103;52.246;8.052;2023-05-07T02:54:56;31.37;;;16.87;;
31482;SDS011;18103;52.246;8.052;2023-05-07T02:57:21;31.87;;;17.23;;
31482;SDS011;18103;52.246;8.052;2023-05-07T02:59:47;33.10;;;16.10;;
31482;SDS011;18103;52.246;8.052;2023-05-07T03:02:12;30.30;;;15.03;;
31482;SDS011;18103;52.246;8.052;2023-05-07T03:04:39;34.47;;;16.70;;
31482;SDS011;18103;52.246;8.052;2023-05-07T03:07:04;28.80;;;15.90;;
31482;SDS011;18103;52.246;8.052;2023-05-07T03:09:33;27.17;;;15.73;;
31482;SDS011;18103;52.246;8.052;2023-05-07T03:11:58;34.17;;;15.63;;
31482;SDS011;18103;52.246;8.052;2023-05-07T03:14:23;29.20;;;15.77;;
31482;SDS011;18103;52.246;8.052;2023-05-07T03:16:49;33.10;;;15.50;;
31482;SDS011;18103;52.246;8.052;2023-05-07T03:19:15;32.60;;;16.77;;
31482;SDS011;18103;52.246;8.052;2023-05-07T03:21:45;31.40;;;15.83;;
31482;SDS011;18103;52.246;8.052;2023-05-07T03:24:10;30.37;;;15.20;;
31482;SDS011;18103;52.246;8.052;2023-05-07T03:26:38;29.67;;;16.30;;
31482;SDS011;18103;52.246;8.052;2023-05-07T03:29:03;29.47;;;15.67;;
31482;SDS011;18103;52.246;8.052;2023-05-07T03:31:28;30.37;;;15.37;;
31482;SDS011;18103;52.246;8.052;2023-05-07T03:33:56;34.50;;;15.27;;
31482;SDS011;18103;52.246;8.052;2023-05-07T03:36:23;29.10;;;17.30;;
31482;SDS011;18103;52.246;8.052;2023-05-07T03:38:49;35.83;;;17.20;;
31482;SDS011;18103;52.246;8.052;2023-05-07T03:41:16;30.50;;;16.27;;
31482;SDS011;18103;52.246;8.052;2023-05-07T03:43:42;36.67;;;17.20;;
31482;SDS011;18103;52.246;8.052;2023-05-07T03:46:08;29.33;;;16.63;;
31482;SDS011;18103;52.246;8.052;2023-05-07T03:48:34;34.43;;;18.03;;
31482;SDS011;18103;52.246;8.052;2023-05-07T03:51:01;33.10;;;17.30;;
31482;SDS011;18103;52.246;8.052;2023-05-07T03:53:27;38.40;;;17.43;;
31482;SDS011;18103;52.246;8.052;2023-05-07T03:55:52;34.63;;;17.73;;
31482;SDS011;18103;52.246;8.052;2023-05-07T03:58:18;30.17;;;16.50;;
31482;SDS011;18103;52.246;8.052;2023-05-07T04:00:50;32.07;;;17.30;;
31482;SDS011;18103;52.246;8.052;2023-05-07T04:03:16;30.13;;;17.03;;
31482;SDS011;18103;52.246;8.052;2023-05-07T04:05:41;36.63;;;17.40;;
31482;SDS011;18103;52.246;8.052;2023-05-07T04:08:09;35.23;;;17.93;;
31482;SDS011;18103;52.246;8.052;2023-05-07T04:10:35;32.63;;;17.93;;
31482;SDS011;18103;52.246;8.052;2023-05-07T04:13:00;34.37;;;17.57;;
31482;SDS011;18103;52.246;8.052;2023-05-07T04:15:25;34.27;;;17.63;;
31482;SDS011;18103;52.246;8.052;2023-05-07T04:17:55;31.27;;;17.60;;
31482;SDS011;18103;52.246;8.052;2023-05-07T04:20:21;35.47;;;17.57;;
31482;SDS011;18103;52.246;8.052;2023-05-07T04:22:46;29.20;;;17.20;;
31482;SDS011;18103;52.246;8.052;2023-05-07T04:25:12;35.30;;;18.37;;
31482;SDS011;18103;52.246;8.052;2023-05-07T04:27:37;32.90;;;18.03;;
31482;SDS011;18103;52.246;8.052;2023-05-07T04:30:02;34.13;;;18.40;;
31482;SDS011;18103;52.246;8.052;2023-05-07T04:32:29;35.50;;;17.57;;
31482;SDS011;18103;52.246;8.052;2023-05-07T04:34:55;33.77;;;17.63;;
31482;SDS011;18103;52.246;8.052;2023-05-07T04:37:25;31.77;;;17.20;;
31482;SDS011;18103;52.246;8.052;2023-05-07T04:39:51;31.00;;;17.43;;
31482;SDS011;18103;52.246;8.052;2023-05-07T04:42:17;36.47;;;18.53;;
31482;SDS011;18103;52.246;8.052;2023-05-07T04:44:45;29.80;;;15.83;;
31482;SDS011;18103;52.246;8.052;2023-05-07T04:47:17;28.27;;;15.00;;
31482;SDS011;18103;52.246;8.052;2023-05-07T04:49:45;29.17;;;15.70;;
31482;SDS011;18103;52.246;8.052;2023-05-07T04:52:12;36.13;;;17.27;;
31482;SDS011;18103;52.246;8.052;2023-05-07T04:54:38;28.63;;;15.63;;
31482;SDS011;18103;52.246;8.052;2023-05-07T04:57:03;30.93;;;14.57;;
31482;SDS011;18103;52.246;8.052;2023-05-07T04:59:29;30.90;;;15.33;;
31482;SDS011;18103;52.246;8.052;2023-05-07T05:01:55;26.50;;;15.37;;
31482;SDS011;18103;52.246;8.052;2023-05-07T05:04:20;32.80;;;16.47;;
31482;SDS011;18103;52.246;8.052;2023-05-07T05:06:46;34.50;;;16.57;;
31482;SDS011;18103;52.246;8.052;2023-05-07T05:09:16;29.80;;;17.47;;
31482;SDS011;18103;52.246;8.052;2023-05-07T05:11:41;26.87;;;16.20;;
31482;SDS011;18103;52.246;8.052;2023-05-07T05:14:07;28.73;;;16.07;;
31482;SDS011;18103;52.246;8.052;2023-05-07T05:16:32;32.80;;;16.77;;
31482;SDS011;18103;52.246;8.052;2023-05-07T05:18:58;32.30;;;17.00;;
31482;SDS011;18103;52.246;8.052;2023-05-07T05:21:25;32.07;;;16.13;;
31482;SDS011;18103;52.246;8.052;2023-05-07T05:23:51;30.67;;;15.53;;
31482;SDS011;18103;52.246;8.052;2023-05-07T05:26:19;32.20;;;16.27;;
31482;SDS011;18103;52.246;8.052;2023-05-07T05:28:46;32.40;;;15.97;;
31482;SDS011;18103;52.246;8.052;2023-05-07T05:31:12;32.40;;;17.40;;
31482;SDS011;18103;52.246;8.052;2023-05-07T05:33:37;29.60;;;15.63;;
31482;SDS011;18103;52.246;8.052;2023-05-07T05:36:03;31.00;;;15.47;;
31482;SDS011;18103;52.246;8.052;2023-05-07T05:38:34;32.93;;;15.33;;
31482;SDS011;18103;52.246;8.052;2023-05-07T05:41:02;35.90;;;17.07;;
31482;SDS011;18103;52.246;8.052;2023-05-07T05:43:27;30.37;;;13.97;;
31482;SDS011;18103;52.246;8.052;2023-05-07T05:45:52;32.10;;;17.10;;
31482;SDS011;18103;52.246;8.052;2023-05-07T05:48:20;34.10;;;16.43;;
31482;SDS011;18103;52.246;8.052;2023-05-07T05:50:48;28.40;;;15.77;;
31482;SDS011;18103;52.246;8.052;2023-05-07T05:53:13;29.07;;;14.90;;
31482;SDS011;18103;52.246;8.052;2023-05-07T05:55:39;26.47;;;14.40;;
31482;SDS011;18103;52.246;8.052;2023-05-07T05:58:04;28.80;;;14.90;;
31482;SDS011;18103;52.246;8.052;2023-05-07T06:00:30;31.67;;;15.33;;
31482;SDS011;18103;52.246;8.052;2023-05-07T06:02:55;27.60;;;13.73;;
31482;SDS011;18103;52.246;8.052;2023-05-07T06:05:21;31.57;;;15.37;;
31482;SDS011;18103;52.246;8.052;2023-05-07T06:07:46;33.73;;;15.60;;
31482;SDS011;18103;52.246;8.052;2023-05-07T06:10:11;32.60;;;14.77;;
31482;SDS011;18103;52.246;8.052;2023-05-07T06:12:37;25.37;;;14.83;;
31482;SDS011;18103;52.246;8.052;2023-05-07T06:15:02;30.63;;;14.90;;
31482;SDS011;18103;52.246;8.052;2023-05-07T06:17:28;29.63;;;14.30;;
31482;SDS011;18103;52.246;8.052;2023-05-07T06:19:54;25.70;;;13.00;;
31482;SDS011;18103;52.246;8.052;2023-05-07T06:22:21;25.00;;;13.40;;
31482;SDS011;18103;52.246;8.052;2023-05-07T06:24:49;30.60;;;15.50;;
31482;SDS011;18103;52.246;8.052;2023-05-07T06:27:19;29.00;;;14.47;;
31482;SDS011;18103;52.246;8.052;2023-05-07T06:29:47;31.37;;;14.03;;
31482;SDS011;18103;52.246;8.052;2023-05-07T06:32:13;30.30;;;13.27;;
31482;SDS011;18103;52.246;8.052;2023-05-07T06:34:42;29.67;;;15.40;;
31482;SDS011;18103;52.246;8.052;2023-05-07T06:37:07;32.83;;;13.83;;
31482;SDS011;18103;52.246;8.052;2023-05-07T06:39:32;29.63;;;15.77;;
31482;SDS011;18103;52.246;8.052;2023-05-07T06:42:01;27.87;;;15.63;;
31482;SDS011;18103;52.246;8.052;2023-05-07T06:44:29;30.10;;;15.27;;
31482;SDS011;18103;52.246;8.052;2023-05-07T06:46:57;31.73;;;15.30;;
31482;SDS011;18103;52.246;8.052;2023-05-07T06:49:25;31.47;;;15.17;;
31482;SDS011;18103;52.246;8.052;2023-05-07T06:51:50;24.67;;;14.37;;
31482;SDS011;18103;52.246;8.052;2023-05-07T06:54:15;28.20;;;14.30;;
31482;SDS011;18103;52.246;8.052;2023-05-07T06:56:46;29.10;;;14.67;;
31482;SDS011;18103;52.246;8.052;2023-05-07T06:59:13;28.93;;;15.00;;
31482;SDS011;18103;52.246;8.052;2023-05-07T07:01:41;30.87;;;13.17;;
31482;SDS011;18103;52.246;8.052;2023-05-07T07:04:06;33.07;;;13.80;;
31482;SDS011;18103;52.246;8.052;2023-05-07T07:06:34;29.30;;;14.27;;
31482;SDS011;18103;52.246;8.052;2023-05-07T07:08:59;28.70;;;15.27;;
31482;SDS011;18103;52.246;8.052;2023-05-07T07:11:25;26.93;;;15.23;;
31482;SDS011;18103;52.246;8.052;2023-05-07T07:13:50;24.57;;;11.13;;
31482;SDS011;18103;52.246;8.052;2023-05-07T07:16:16;27.67;;;13.63;;
31482;SDS011;18103;52.246;8.052;2023-05-07T07:18:44;25.80;;;14.43;;
31482;SDS011;18103;52.246;8.052;2023-05-07T07:21:09;31.00;;;14.07;;
31482;SDS011;18103;52.246;8.052;2023-05-07T07:23:38;26.63;;;13.73;;
31482;SDS011;18103;52.246;8.052;2023-05-07T07:26:03;25.97;;;14.40;;
31482;SDS011;18103;52.246;8.052;2023-05-07T07:28:29;22.80;;;11.60;;
31482;SDS011;18103;52.246;8.052;2023-05-07T07:30:56;29.10;;;13.43;;
31482;SDS011;18103;52.246;8.052;2023-05-07T07:33:24;30.07;;;13.53;;
31482;SDS011;18103;52.246;8.052;2023-05-07T07:35:52;22.70;;;10.63;;
31482;SDS011;18103;52.246;8.052;2023-05-07T07:38:18;22.50;;;10.53;;
31482;SDS011;18103;52.246;8.052;2023-05-07T07:40:43;24.53;;;13.70;;
31482;SDS011;18103;52.246;8.052;2023-05-07T07:43:09;25.47;;;13.87;;
31482;SDS011;18103;52.246;8.052;2023-05-07T07:45:34;24.80;;;13.10;;
31482;SDS011;18103;52.246;8.052;2023-05-07T07:48:00;25.13;;;13.70;;
31482;SDS011;18103;52.246;8.052;2023-05-07T07:50:25;29.03;;;13.20;;
31482;SDS011;18103;52.246;8.052;2023-05-07T07:52:51;26.83;;;13.10;;
31482;SDS011;18103;52.246;8.052;2023-05-07T07:55:19;26.93;;;12.47;;
31482;SDS011;18103;52.246;8.052;2023-05-07T07:57:49;23.13;;;12.63;;
31482;SDS011;18103;52.246;8.052;2023-05-07T08:00:17;21.53;;;12.60;;
31482;SDS011;18103;52.246;8.052;2023-05-07T08:02:47;22.40;;;11.93;;
31482;SDS011;18103;52.246;8.052;2023-05-07T08:05:12;23.23;;;12.37;;
31482;SDS011;18103;52.246;8.052;2023-05-07T08:07:40;20.20;;;10.80;;
31482;SDS011;18103;52.246;8.052;2023-05-07T08:10:05;22.27;;;12.40;;
31482;SDS011;18103;52.246;8.052;2023-05-07T08:12:31;25.27;;;12.43;;
31482;SDS011;18103;52.246;8.052;2023-05-07T08:14:56;21.43;;;11.77;;
31482;SDS011;18103;52.246;8.052;2023-05-07T08:17:22;21.80;;;11.53;;
31482;SDS011;18103;52.246;8.052;2023-05-07T08:19:49;20.97;;;11.63;;
31482;SDS011;18103;52.246;8.052;2023-05-07T08:22:15;25.00;;;11.47;;
31482;SDS011;18103;52.246;8.052;2023-05-07T08:24:40;15.63;;;9.47;;
31482;SDS011;18103;52.246;8.052;2023-05-07T08:27:06;24.00;;;12.13;;
31482;SDS011;18103;52.246;8.052;2023-05-07T08:29:33;20.53;;;11.30;;
31482;SDS011;18103;52.246;8.052;2023-05-07T08:32:01;28.07;;;12.47;;
31482;SDS011;18103;52.246;8.052;2023-05-07T08:34:26;26.70;;;13.00;;
31482;SDS011;18103;52.246;8.052;2023-05-07T08:36:51;29.70;;;11.50;;
31482;SDS011;18103;52.246;8.052;2023-05-07T08:39:17;21.97;;;10.70;;
31482;SDS011;18103;52.246;8.052;2023-05-07T08:41:45;26.87;;;13.03;;
31482;SDS011;18103;52.246;8.052;2023-05-07T08:44:13;22.00;;;11.77;;
31482;SDS011;18103;52.246;8.052;2023-05-07T08:46:43;20.17;;;11.37;;
31482;SDS011;18103;52.246;8.052;2023-05-07T08:49:14;25.30;;;11.90;;
31482;SDS011;18103;52.246;8.052;2023-05-07T08:51:44;16.90;;;8.03;;
31482;SDS011;18103;52.246;8.052;2023-05-07T08:54:15;19.27;;;11.23;;
31482;SDS011;18103;52.246;8.052;2023-05-07T08:56:41;25.70;;;11.90;;
31482;SDS011;18103;52.246;8.052;2023-05-07T08:59:07;23.50;;;10.90;;
31482;SDS011;18103;52.246;8.052;2023-05-07T09:01:34;22.17;;;11.80;;
31482;SDS011;18103;52.246;8.052;2023-05-07T09:04:03;18.17;;;11.27;;
31482;SDS011;18103;52.246;8.052;2023-05-07T09:06:32;20.67;;;10.47;;
31482;SDS011;18103;52.246;8.052;2023-05-07T09:09:00;20.03;;;11.10;;
31482;SDS011;18103;52.246;8.052;2023-05-07T09:11:30;20.80;;;10.33;;
31482;SDS011;18103;52.246;8.052;2023-05-07T09:13:56;17.73;;;10.43;;
31482;SDS011;18103;52.246;8.052;2023-05-07T09:16:24;22.10;;;10.60;;
31482;SDS011;18103;52.246;8.052;2023-05-07T09:18:53;18.07;;;10.13;;
31482;SDS011;18103;52.246;8.052;2023-05-07T09:21:20;22.27;;;11.27;;
31482;SDS011;18103;52.246;8.052;2023-05-07T09:23:48;21.50;;;10.13;;
31482;SDS011;18103;52.246;8.052;2023-05-07T09:26:17;20.90;;;9.43;;
31482;SDS011;18103;52.246;8.052;2023-05-07T09:28:46;19.43;;;10.03;;
31482;SDS011;18103;52.246;8.052;2023-05-07T09:31:14;17.57;;;9.53;;
31482;SDS011;18103;52.246;8.052;2023-05-07T09:33:39;19.10;;;9.90;;
31482;SDS011;18103;52.246;8.052;2023-05-07T09:36:06;14.57;;;8.50;;
31482;SDS011;18103;52.246;8.052;2023-05-07T09:38:34;22.03;;;10.63;;
31482;SDS011;18103;52.246;8.052;2023-05-07T09:41:04;19.33;;;10.30;;
31482;SDS011;18103;52.246;8.052;2023-05-07T09:43:37;15.83;;;10.23;;
31482;SDS011;18103;52.246;8.052;2023-05-07T09:46:13;19.77;;;9.47;;
31482;SDS011;18103;52.246;8.052;2023-05-07T09:48:42;15.77;;;9.20;;
31482;SDS011;18103;52.246;8.052;2023-05-07T09:51:21;13.43;;;8.37;;
31482;SDS011;18103;52.246;8.052;2023-05-07T09:53:53;21.67;;;9.50;;
31482;SDS011;18103;52.246;8.052;2023-05-07T09:56:19;14.43;;;8.30;;
31482;SDS011;18103;52.246;8.052;2023-05-07T09:58:47;14.47;;;8.73;;
31482;SDS011;18103;52.246;8.052;2023-05-07T10:01:16;17.03;;;9.70;;
31482;SDS011;18103;52.246;8.052;2023-05-07T10:03:49;15.03;;;9.07;;
31482;SDS011;18103;52.246;8.052;2023-05-07T10:06:16;16.80;;;9.60;;
31482;SDS011;18103;52.246;8.052;2023-05-07T10:08:43;18.87;;;8.87;;
31482;SDS011;18103;52.246;8.052;2023-05-07T10:11:11;17.53;;;8.60;;
31482;SDS011;18103;52.246;8.052;2023-05-07T10:13:37;16.57;;;9.30;;
31482;SDS011;18103;52.246;8.052;2023-05-07T10:16:05;14.50;;;9.20;;
31482;SDS011;18103;52.246;8.052;2023-05-07T10:18:31;13.63;;;9.13;;
31482;SDS011;18103;52.246;8.052;2023-05-07T10:23:49;14.97;;;7.17;;
31482;SDS011;18103;52.246;8.052;2023-05-07T10:26:18;14.37;;;8.40;;
31482;SDS011;18103;52.246;8.052;2023-05-07T10:28:49;11.93;;;7.87;;
31482;SDS011;18103;52.246;8.052;2023-05-07T10:34:08;15.50;;;8.20;;
31482;SDS011;18103;52.246;8.052;2023-05-07T10:36:37;10.93;;;6.90;;
31482;SDS011;18103;52.246;8.052;2023-05-07T10:39:04;11.70;;;6.63;;
31482;SDS011;18103;52.246;8.052;2023-05-07T10:41:33;13.57;;;7.23;;
31482;SDS011;18103;52.246;8.052;2023-05-07T10:44:01;13.93;;;7.60;;
31482;SDS011;18103;52.246;8.052;2023-05-07T10:46:27;12.30;;;7.30;;
31482;SDS011;18103;52.246;8.052;2023-05-07T10:51:36;10.03;;;7.00;;
31482;SDS011;18103;52.246;8.052;2023-05-07T10:54:23;11.83;;;6.83;;
31482;SDS011;18103;52.246;8.052;2023-05-07T10:56:48;11.30;;;7.00;;
31482;SDS011;18103;52.246;8.052;2023-05-07T11:02:00;13.27;;;7.03;;
31482;SDS011;18103;52.246;8.052;2023-05-07T11:04:29;13.57;;;8.30;;
31482;SDS011;18103;52.246;8.052;2023-05-07T11:15:07;8.20;;;5.07;;
31482;SDS011;18103;52.246;8.052;2023-05-07T11:17:35;10.43;;;6.83;;
31482;SDS011;18103;52.246;8.052;2023-05-07T11:20:20;9.50;;;5.90;;
31482;SDS011;18103;52.246;8.052;2023-05-07T11:22:46;8.70;;;5.20;;
31482;SDS011;18103;52.246;8.052;2023-05-07T11:25:16;9.77;;;6.20;;
31482;SDS011;18103;52.246;8.052;2023-05-07T11:27:43;11.17;;;6.67;;
31482;SDS011;18103;52.246;8.052;2023-05-07T11:30:08;9.37;;;6.53;;
31482;SDS011;18103;52.246;8.052;2023-05-07T11:32:37;8.33;;;5.90;;
31482;SDS011;18103;52.246;8.052;2023-05-07T11:35:02;7.77;;;4.93;;
31482;SDS011;18103;52.246;8.052;2023-05-07T11:37:28;7.97;;;5.73;;
31482;SDS011;18103;52.246;8.052;2023-05-07T11:42:32;8.03;;;5.27;;
31482;SDS011;18103;52.246;8.052;2023-05-07T11:44:58;7.33;;;5.30;;
31482;SDS011;18103;52.246;8.052;2023-05-07T11:47:29;10.33;;;6.10;;
31482;SDS011;18103;52.246;8.052;2023-05-07T11:49:55;9.40;;;6.00;;
31482;SDS011;18103;52.246;8.052;2023-05-07T11:52:23;12.23;;;6.40;;
31482;SDS011;18103;52.246;8.052;2023-05-07T11:57:21;9.03;;;6.03;;
31482;SDS011;18103;52.246;8.052;2023-05-07T11:59:52;11.67;;;6.53;;
31482;SDS011;18103;52.246;8.052;2023-05-07T12:02:21;9.57;;;5.90;;
31482;SDS011;18103;52.246;8.052;2023-05-07T12:04:50;13.53;;;6.43;;
31482;SDS011;18103;52.246;8.052;2023-05-07T12:07:16;11.53;;;6.10;;
31482;SDS011;18103;52.246;8.052;2023-05-07T12:09:47;14.17;;;6.80;;
31482;SDS011;18103;52.246;8.052;2023-05-07T12:12:15;10.17;;;6.60;;
31482;SDS011;18103;52.246;8.052;2023-05-07T12:14:44;13.63;;;6.17;;
31482;SDS011;18103;52.246;8.052;2023-05-07T12:17:13;11.00;;;7.23;;
31482;SDS011;18103;52.246;8.052;2023-05-07T12:19:41;10.53;;;7.03;;
31482;SDS011;18103;52.246;8.052;2023-05-07T12:22:08;11.63;;;6.60;;
31482;SDS011;18103;52.246;8.052;2023-05-07T12:24:46;10.40;;;5.63;;
31482;SDS011;18103;52.246;8.052;2023-05-07T12:27:16;11.83;;;5.57;;
31482;SDS011;18103;52.246;8.052;2023-05-07T12:29:49;9.77;;;5.87;;
31482;SDS011;18103;52.246;8.052;2023-05-07T12:32:16;8.17;;;5.90;;
31482;SDS011;18103;52.246;8.052;2023-05-07T12:34:43;9.17;;;5.27;;
31482;SDS011;18103;52.246;8.052;2023-05-07T12:37:13;7.60;;;4.83;;
31482;SDS011;18103;52.246;8.052;2023-05-07T12:39:43;10.33;;;5.67;;
31482;SDS011;18103;52.246;8.052;2023-05-07T12:42:14;8.77;;;5.50;;
31482;SDS011;18103;52.246;8.052;2023-05-07T12:44:41;9.80;;;5.03;;
31482;SDS011;18103;52.246;8.052;2023-05-07T12:47:12;8.73;;;6.00;;
31482;SDS011;18103;52.246;8.052;2023-05-07T12:49:38;7.70;;;5.17;;
31482;SDS011;18103;52.246;8.052;2023-05-07T12:52:06;6.40;;;4.50;;
31482;SDS011;18103;52.246;8.052;2023-05-07T12:54:32;9.77;;;5.37;;
31482;SDS011;18103;52.246;8.052;2023-05-07T12:59:38;5.70;;;3.97;;
31482;SDS011;18103;52.246;8.052;2023-05-07T13:02:05;8.37;;;4.67;;
31482;SDS011;18103;52.246;8.052;2023-05-07T13:04:31;8.30;;;4.80;;
31482;SDS011;18103;52.246;8.052;2023-05-07T13:06:59;7.33;;;4.70;;
31482;SDS011;18103;52.246;8.052;2023-05-07T13:09:25;8.50;;;5.13;;
31482;SDS011;18103;52.246;8.052;2023-05-07T13:11:51;7.70;;;4.50;;
31482;SDS011;18103;52.246;8.052;2023-05-07T13:14:18;7.63;;;5.13;;
31482;SDS011;18103;52.246;8.052;2023-05-07T13:16:45;6.83;;;4.77;;
31482;SDS011;18103;52.246;8.052;2023-05-07T13:19:11;6.87;;;4.23;;
31482;SDS011;18103;52.246;8.052;2023-05-07T13:21:37;6.40;;;4.33;;
31482;SDS011;18103;52.246;8.052;2023-05-07T13:24:02;6.57;;;4.20;;
31482;SDS011;18103;52.246;8.052;2023-05-07T13:26:29;8.70;;;4.40;;
31482;SDS011;18103;52.246;8.052;2023-05-07T13:28:57;6.43;;;4.17;;
31482;SDS011;18103;52.246;8.052;2023-05-07T13:31:25;7.53;;;4.50;;
31482;SDS011;18103;52.246;8.052;2023-05-07T13:33:53;7.23;;;4.37;;
31482;SDS011;18103;52.246;8.052;2023-05-07T13:36:18;10.27;;;4.73;;
31482;SDS011;18103;52.246;8.052;2023-05-07T13:38:44;6.60;;;4.47;;
31482;SDS011;18103;52.246;8.052;2023-05-07T13:41:12;5.80;;;4.57;;
31482;SDS011;18103;52.246;8.052;2023-05-07T13:43:40;5.83;;;4.37;;
31482;SDS011;18103;52.246;8.052;2023-05-07T13:46:08;8.73;;;4.17;;
31482;SDS011;18103;52.246;8.052;2023-05-07T13:48:38;4.73;;;3.70;;
31482;SDS011;18103;52.246;8.052;2023-05-07T13:51:03;6.17;;;4.10;;
31482;SDS011;18103;52.246;8.052;2023-05-07T13:53:29;5.77;;;3.87;;
31482;SDS011;18103;52.246;8.052;2023-05-07T13:55:54;6.23;;;3.87;;
31482;SDS011;18103;52.246;8.052;2023-05-07T13:58:20;5.63;;;4.13;;
31482;SDS011;18103;52.246;8.052;2023-05-07T14:00:50;5.70;;;3.57;;
31482;SDS011;18103;52.246;8.052;2023-05-07T14:03:17;5.43;;;3.13;;
31482;SDS011;18103;52.246;8.052;2023-05-07T14:05:45;5.97;;;3.77;;
31482;SDS011;18103;52.246;8.052;2023-05-07T14:08:13;9.20;;;4.27;;
31482;SDS011;18103;52.246;8.052;2023-05-07T14:10:44;5.27;;;4.03;;
31482;SDS011;18103;52.246;8.052;2023-05-07T14:13:09;5.87;;;4.13;;
31482;SDS011;18103;52.246;8.052;2023-05-07T14:15:35;5.23;;;3.97;;
31482;SDS011;18103;52.246;8.052;2023-05-07T14:18:03;6.63;;;4.40;;
31482;SDS011;18103;52.246;8.052;2023-05-07T14:20:28;7.03;;;4.20;;
31482;SDS011;18103;52.246;8.052;2023-05-07T14:22:55;6.70;;;4.77;;
31482;SDS011;18103;52.246;8.052;2023-05-07T14:25:23;6.77;;;4.13;;
31482;SDS011;18103;52.246;8.052;2023-05-07T14:27:48;5.70;;;4.20;;
31482;SDS011;18103;52.246;8.052;2023-05-07T14:30:18;7.50;;;3.80;;
31482;SDS011;18103;52.246;8.052;2023-05-07T14:32:44;5.47;;;3.80;;
31482;SDS011;18103;52.246;8.052;2023-05-07T14:35:09;6.77;;;4.07;;
31482;SDS011;18103;52.246;8.052;2023-05-07T14:37:38;6.03;;;4.07;;
31482;SDS011;18103;52.246;8.052;2023-05-07T14:40:06;7.23;;;4.03;;
31482;SDS011;18103;52.246;8.052;2023-05-07T14:42:31;6.23;;;4.47;;
31482;SDS011;18103;52.246;8.052;2023-05-07T14:44:59;6.90;;;4.23;;
31482;SDS011;18103;52.246;8.052;2023-05-07T14:47:25;7.50;;;4.73;;
31482;SDS011;18103;52.246;8.052;2023-05-07T14:49:50;6.67;;;4.80;;
31482;SDS011;18103;52.246;8.052;2023-05-07T14:52:16;6.13;;;4.00;;
31482;SDS011;18103;52.246;8.052;2023-05-07T14:54:41;5.73;;;4.40;;